createdAt,value
2023-04-13T00:03:39.720Z,13.68
2023-04-13T00:08:43.680Z,13.70
2023-04-13T00:13:47.714Z,13.63
2023-04-13T00:18:50.661Z,13.60
2023-04-13T00:23:53.337Z,13.55
2023-04-13T00:28:55.163Z,13.50
2023-04-13T00:33:57.262Z,13.45
2023-04-13T00:39:02.935Z,13.37
2023-04-13T00:44:04.827Z,13.32
2023-04-13T00:49:07.364Z,13.30
2023-04-13T00:54:10.005Z,13.26
2023-04-13T00:59:12.669Z,13.21
2023-04-13T01:04:14.610Z,13.17
2023-04-13T01:09:21.211Z,13.18
2023-04-13T01:14:57.490Z,13.22
2023-04-13T01:20:06.677Z,13.15
2023-04-13T01:25:41.942Z,13.12
2023-04-13T01:30:45.433Z,13.08
2023-04-13T01:35:50.263Z,13.08
2023-04-13T01:40:52.378Z,13.16
2023-04-13T01:46:11.498Z,13.13
2023-04-13T01:51:25.038Z,13.13
2023-04-13T01:56:31.730Z,13.03
2023-04-13T02:01:41.299Z,12.96
2023-04-13T02:06:43.562Z,12.90
2023-04-13T02:11:45.720Z,12.87
2023-04-13T02:16:47.785Z,12.82
2023-04-13T02:21:50.314Z,12.76
2023-04-13T02:26:53.272Z,12.70
2023-04-13T02:31:56.314Z,12.62
2023-04-13T02:36:58.277Z,12.58
2023-04-13T02:42:00.210Z,12.57
2023-04-13T02:47:06.289Z,12.52
2023-04-13T02:52:08.274Z,12.48
2023-04-13T02:57:19.950Z,12.41
2023-04-13T03:02:23.434Z,12.44
2023-04-13T03:07:26.427Z,12.46
2023-04-13T03:12:28.797Z,12.43
2023-04-13T03:17:31.292Z,12.43
2023-04-13T03:22:34.474Z,12.41
2023-04-13T03:27:38.083Z,12.40
2023-04-13T03:32:40.901Z,12.32
2023-04-13T03:37:45.075Z,12.28
2023-04-13T03:43:06.065Z,12.28
2023-04-13T03:48:12.007Z,12.33
2023-04-13T03:53:14.020Z,12.23
2023-04-13T03:58:19.243Z,12.19
2023-04-13T04:03:22.842Z,12.13
2023-04-13T04:08:29.623Z,12.10
2023-04-13T04:13:36.259Z,12.11
2023-04-13T04:18:43.589Z,12.19
2023-04-13T04:23:49.359Z,12.25
2023-04-13T04:28:52.012Z,12.28
2023-04-13T04:33:56.997Z,12.35
2023-04-13T04:39:02.715Z,12.32
2023-04-13T04:44:09.453Z,12.29
2023-04-13T04:49:15.578Z,12.25
2023-04-13T04:54:18.504Z,12.23
2023-04-13T04:59:22.259Z,12.24
2023-04-13T05:04:38.993Z,12.19
2023-04-13T05:09:42.290Z,12.10
2023-04-13T05:14:44.290Z,12.06
2023-04-13T05:19:48.409Z,11.90
2023-04-13T05:25:11.881Z,11.73
2023-04-13T05:30:14.253Z,11.71
2023-04-13T05:35:18.103Z,11.64
2023-04-13T05:40:20.490Z,11.60
2023-04-13T05:45:24.405Z,11.53
2023-04-13T05:50:36.710Z,11.53
2023-04-13T05:55:40.800Z,11.57
2023-04-13T06:00:43.272Z,11.53
2023-04-13T06:05:49.522Z,11.50
2023-04-13T06:10:51.357Z,11.32
2023-04-13T06:15:53.401Z,11.33
2023-04-13T06:20:57.273Z,11.36
2023-04-13T06:25:59.165Z,11.36
2023-04-13T06:31:16.796Z,11.30
2023-04-13T06:36:21.555Z,11.30
2023-04-13T06:41:23.929Z,11.36
2023-04-13T06:46:27.812Z,11.36
2023-04-13T06:51:34.834Z,11.31
2023-04-13T06:56:36.821Z,11.30
2023-04-13T07:01:39.641Z,11.38
2023-04-13T07:06:41.681Z,11.46
2023-04-13T07:11:44.067Z,11.56
2023-04-13T07:16:46.812Z,11.63
2023-04-13T07:21:50.235Z,11.73
2023-04-13T07:26:52.777Z,11.73
2023-04-13T07:32:03.309Z,11.73
2023-04-13T07:37:07.868Z,11.68
2023-04-13T07:42:09.721Z,11.68
2023-04-13T07:47:25.228Z,11.77
2023-04-13T07:52:31.633Z,11.93
2023-04-13T07:57:33.817Z,12.06
2023-04-13T08:02:38.853Z,12.23
2023-04-13T08:07:41.403Z,12.32
2023-04-13T08:12:43.581Z,12.45
2023-04-13T08:17:47.638Z,12.42
2023-04-13T08:22:50.287Z,12.45
2023-04-13T08:28:01.411Z,12.44
2023-04-13T08:33:04.180Z,12.42
2023-04-13T08:38:07.760Z,12.45
2023-04-13T08:43:11.130Z,12.48
2023-04-13T08:48:15.490Z,12.63
2023-04-13T08:53:19.096Z,12.72
2023-04-13T08:58:24.646Z,12.81
2023-04-13T09:03:33.970Z,12.98
2023-04-13T09:08:37.320Z,13.04
2023-04-13T09:13:49.000Z,13.02
2023-04-13T09:18:58.849Z,12.90
2023-04-13T09:24:00.914Z,12.87
2023-04-13T09:29:03.320Z,12.87
2023-04-13T09:34:06.113Z,12.88
2023-04-13T09:39:08.223Z,12.79
2023-04-13T09:44:18.883Z,12.62
2023-04-13T09:49:20.778Z,12.56
2023-04-13T10:22:32.882Z,13.47
2023-04-13T10:27:36.597Z,13.91
2023-04-13T10:32:38.421Z,14.18
2023-04-13T10:37:41.673Z,14.38
2023-04-13T10:47:53.227Z,14.69
2023-04-13T10:53:05.120Z,14.76
2023-04-13T10:58:20.591Z,14.97
2023-04-13T11:03:29.999Z,15.11
2023-04-13T11:08:32.868Z,15.39
2023-04-13T11:13:34.644Z,15.29
2023-04-13T11:18:36.836Z,15.18
2023-04-13T11:23:38.640Z,15.38
2023-04-13T11:28:42.526Z,15.97
2023-04-13T11:33:49.242Z,16.27
2023-04-13T11:38:52.276Z,15.98
2023-04-13T11:43:54.712Z,15.83
2023-04-13T11:48:58.940Z,15.76
2023-04-13T11:54:02.124Z,15.90
2023-04-13T11:59:04.485Z,15.56
2023-04-13T12:04:15.315Z,15.44
2023-04-13T12:09:22.129Z,15.83
2023-04-13T12:19:30.386Z,16.09
2023-04-13T12:24:38.579Z,16.18
2023-04-13T12:29:41.874Z,16.36
2023-04-13T12:34:44.087Z,16.34
2023-04-13T12:39:45.862Z,16.59
2023-04-13T12:44:47.651Z,16.93
2023-04-13T12:49:49.416Z,16.94
2023-04-13T12:54:51.372Z,16.72
2023-04-13T12:59:53.296Z,16.38
2023-04-13T13:04:59.219Z,16.05
2023-04-13T13:10:01.957Z,16.09
2023-04-13T13:15:05.929Z,16.38
2023-04-13T13:20:09.698Z,16.18
2023-04-13T13:25:11.699Z,16.12
2023-04-13T13:30:14.468Z,16.22
2023-04-13T13:35:16.848Z,16.67
2023-04-13T13:40:18.931Z,16.72
2023-04-13T13:45:21.869Z,16.90
2023-04-13T13:50:24.037Z,16.97
2023-04-13T13:55:27.522Z,17.10
2023-04-13T14:00:29.399Z,17.33
2023-04-13T14:05:32.080Z,17.38
2023-04-13T14:10:35.956Z,17.26
2023-04-13T14:15:37.750Z,17.13
2023-04-13T14:20:40.343Z,17.12
2023-04-13T14:25:42.603Z,17.05
2023-04-13T14:30:45.190Z,17.06
2023-04-13T14:35:46.982Z,17.13
2023-04-13T14:40:49.065Z,17.15
2023-04-13T14:45:55.154Z,16.99
2023-04-13T14:50:57.057Z,16.97
2023-04-13T14:55:59.252Z,16.79
2023-04-13T15:01:01.748Z,16.62
2023-04-13T15:06:05.325Z,16.58
2023-04-13T15:11:07.811Z,16.63
2023-04-13T15:16:09.614Z,16.49
2023-04-13T15:21:11.477Z,16.57
2023-04-13T15:26:18.323Z,16.58
2023-04-13T15:31:21.909Z,16.51
2023-04-13T15:36:23.835Z,16.56
2023-04-13T15:41:27.518Z,16.52
2023-04-13T15:46:30.002Z,16.50
2023-04-13T15:51:32.502Z,16.49
2023-04-13T15:56:34.281Z,16.54
2023-04-13T16:01:49.709Z,16.54
2023-04-13T16:07:04.960Z,16.45
2023-04-13T16:12:12.014Z,16.32
2023-04-13T16:17:17.296Z,16.19
2023-04-13T16:22:19.059Z,16.10
2023-04-13T16:27:20.889Z,16.09
2023-04-13T16:32:22.748Z,16.10
2023-04-13T16:37:24.556Z,16.02
2023-04-13T16:42:26.362Z,15.97
2023-04-13T16:47:28.353Z,15.90
2023-04-13T16:52:34.789Z,15.89
2023-04-13T16:57:37.245Z,15.84
2023-04-13T17:02:41.605Z,15.84
2023-04-13T17:07:44.786Z,15.83
2023-04-13T17:12:47.263Z,15.79
2023-04-13T17:17:49.134Z,15.78
2023-04-13T17:22:51.190Z,15.71
2023-04-13T17:27:53.597Z,15.66
2023-04-13T17:32:55.529Z,15.67
2023-04-13T17:37:57.317Z,15.62
2023-04-13T17:42:59.159Z,15.58
2023-04-13T17:48:10.222Z,15.53
2023-04-13T17:53:12.258Z,15.45
2023-04-13T17:58:14.564Z,15.39
2023-04-13T18:03:18.061Z,15.35
2023-04-13T18:08:20.677Z,15.32
2023-04-13T18:13:22.805Z,15.18
2023-04-13T18:18:25.462Z,14.83
2023-04-13T18:23:27.684Z,14.67
2023-04-13T18:28:30.221Z,14.60
2023-04-13T18:33:32.578Z,14.67
2023-04-13T18:38:34.386Z,14.75
2023-04-13T18:43:36.381Z,14.86
2023-04-13T18:48:38.643Z,14.89
2023-04-13T18:53:41.184Z,14.87
2023-04-13T18:58:44.650Z,14.84
2023-04-13T19:03:47.524Z,14.84
2023-04-13T19:08:49.908Z,14.85
2023-04-13T19:13:52.163Z,14.82
2023-04-13T19:18:54.390Z,14.75
2023-04-13T19:23:57.120Z,14.69
2023-04-13T19:29:00.730Z,14.64
2023-04-13T19:34:02.828Z,14.57
2023-04-13T19:39:08.032Z,14.46
2023-04-13T19:44:10.223Z,14.35
2023-04-13T19:49:13.626Z,14.34
2023-04-13T19:54:15.444Z,14.29
2023-04-13T19:59:17.846Z,14.24
2023-04-13T20:04:19.801Z,14.14
2023-04-13T20:09:22.337Z,14.02
2023-04-13T20:14:24.325Z,13.77
2023-04-13T20:19:26.476Z,13.48
2023-04-13T20:24:28.337Z,13.17
2023-04-13T20:29:30.526Z,13.13
2023-04-13T20:34:35.003Z,13.19
2023-04-13T20:39:40.358Z,13.23
2023-04-13T20:44:44.765Z,13.32
2023-04-13T20:49:51.942Z,13.42
2023-04-13T20:54:54.766Z,13.45
2023-04-13T20:59:56.630Z,13.44
2023-04-13T21:04:58.428Z,13.37
2023-04-13T21:10:00.236Z,13.28
2023-04-13T21:15:03.081Z,13.23
2023-04-13T21:20:08.597Z,13.18
2023-04-13T21:25:10.411Z,13.10
2023-04-13T21:30:12.310Z,13.08
2023-04-13T21:35:17.357Z,12.94
2023-04-13T21:40:19.292Z,12.63
2023-04-13T21:45:21.155Z,12.52
2023-04-13T21:50:23.023Z,12.44
2023-04-13T21:55:24.828Z,12.48
2023-04-13T22:00:26.938Z,12.54
2023-04-13T22:05:28.649Z,12.60
2023-04-13T22:10:30.684Z,12.57
2023-04-13T22:15:32.506Z,12.53
2023-04-13T22:20:34.306Z,12.51
2023-04-13T22:25:36.085Z,12.44
2023-04-13T22:30:37.965Z,12.41
2023-04-13T22:35:39.734Z,12.50
2023-04-13T22:40:41.578Z,12.53
2023-04-13T22:45:43.349Z,12.51
2023-04-13T22:50:45.137Z,12.45
2023-04-13T22:55:46.934Z,12.34
2023-04-13T23:00:48.680Z,12.09
2023-04-13T23:05:50.646Z,11.92
2023-04-13T23:10:52.639Z,11.87
2023-04-13T23:16:00.642Z,11.86
2023-04-13T23:21:10.282Z,11.90
2023-04-13T23:26:12.064Z,12.02
2023-04-13T23:31:14.063Z,11.90
2023-04-13T23:36:16.451Z,11.91
2023-04-13T23:41:18.332Z,12.02
2023-04-13T23:46:20.314Z,12.06
2023-04-13T23:51:22.486Z,12.05
2023-04-13T23:56:24.309Z,12.12
